Time;durP1;ratioP1;P1;durP2;ratioP2;P2;SDS_P1;SDS_P2;PMS_P1;PMS_P2;Temp;Humidity;BMP_temperature;BMP_pressure;BME280_temperature;BME280_humidity;BME280_pressure;Samples;Min_cycle;Max_cycle;Signal;HPM_P1;HPM_P2
2021/08/04 00:02:17;;;;;;;4.78;2.85;;;;;;;;;;5001778;28;20054;-80
2021/08/04 00:04:44;;;;;;;4.18;2.03;;;;;;;;;;5016144;28;20046;-80
2021/08/04 00:07:10;;;;;;;3.75;1.88;;;;;;;;;;5001077;28;20046;-80
2021/08/04 00:09:37;;;;;;;3.97;2.08;;;;;;;;;;5002120;28;20042;-81
2021/08/04 00:12:06;;;;;;;3.38;2.30;;;;;;;;;;4999330;28;20046;-82
2021/08/04 00:14:33;;;;;;;4.35;2.15;;;;;;;;;;5001128;28;20056;-80
2021/08/04 00:17:00;;;;;;;5.05;2.40;;;;;;;;;;5000349;28;20048;-80
2021/08/04 00:19:27;;;;;;;5.47;2.28;;;;;;;;;;5015225;28;20557;-80
2021/08/04 00:21:53;;;;;;;3.20;2.22;;;;;;;;;;4998699;28;20062;-79
2021/08/04 00:24:20;;;;;;;4.30;2.50;;;;;;;;;;4999837;28;20046;-80
2021/08/04 00:26:47;;;;;;;3.38;2.17;;;;;;;;;;4986932;28;20062;-80
2021/08/04 00:29:14;;;;;;;4.85;2.70;;;;;;;;;;4979141;28;20051;-80
2021/08/04 00:31:41;;;;;;;4.97;2.25;;;;;;;;;;4993829;28;20050;-80
2021/08/04 00:34:08;;;;;;;4.22;2.30;;;;;;;;;;5000755;28;20410;-80
2021/08/04 00:36:34;;;;;;;4.20;2.40;;;;;;;;;;5000910;28;20057;-80
2021/08/04 00:39:01;;;;;;;7.00;2.40;;;;;;;;;;5000978;28;20046;-81
2021/08/04 00:41:28;;;;;;;4.72;2.35;;;;;;;;;;5001259;28;20077;-80
2021/08/04 00:43:55;;;;;;;7.35;2.97;;;;;;;;;;5001622;28;20046;-81
2021/08/04 00:46:23;;;;;;;4.55;2.50;;;;;;;;;;5000642;28;20228;-81
2021/08/04 00:48:50;;;;;;;4.95;2.53;;;;;;;;;;5001016;28;20499;-80
2021/08/04 00:51:17;;;;;;;6.97;3.25;;;;;;;;;;5000881;28;20042;-81
2021/08/04 00:53:44;;;;;;;4.28;2.55;;;;;;;;;;5015933;28;20058;-81
2021/08/04 00:56:11;;;;;;;5.68;2.58;;;;;;;;;;4999940;28;20050;-81
2021/08/04 00:58:39;;;;;;;4.78;2.55;;;;;;;;;;5015406;28;20076;-82
2021/08/04 01:01:08;;;;;;;5.60;2.55;;;;;;;;;;5016036;28;20166;-81
2021/08/04 01:03:39;;;;;;;4.15;2.65;;;;;;;;;;5001661;28;20126;-83
2021/08/04 01:06:09;;;;;;;5.80;2.55;;;;;;;;;;5000616;28;20050;-82
2021/08/04 01:08:39;;;;;;;3.95;2.53;;;;;;;;;;5000300;28;20384;-82
2021/08/04 01:11:08;;;;;;;4.13;2.20;;;;;;;;;;5000952;28;20050;-82
2021/08/04 01:13:40;;;;;;;5.57;2.88;;;;;;;;;;5000387;28;20439;-82
2021/08/04 01:16:10;;;;;;;5.53;2.35;;;;;;;;;;5001656;28;20046;-82
2021/08/04 01:18:41;;;;;;;4.43;2.58;;;;;;;;;;5002120;28;20050;-82
2021/08/04 01:21:08;;;;;;;3.85;2.47;;;;;;;;;;5003277;28;20045;-81
2021/08/04 01:23:41;;;;;;;4.53;2.97;;;;;;;;;;5002624;28;20074;-82
2021/08/04 01:26:12;;;;;;;4.20;2.42;;;;;;;;;;4998865;28;20061;-82
2021/08/04 01:28:43;;;;;;;5.20;2.22;;;;;;;;;;5014069;28;20050;-82
2021/08/04 01:31:12;;;;;;;5.00;2.20;;;;;;;;;;5000612;28;20133;-82
2021/08/04 01:33:40;;;;;;;9.18;2.65;;;;;;;;;;4999446;28;20050;-81
2021/08/04 01:36:08;;;;;;;4.63;2.15;;;;;;;;;;4999860;28;20046;-82
2021/08/04 01:38:34;;;;;;;3.85;2.20;;;;;;;;;;4999719;28;20058;-82
2021/08/04 01:41:03;;;;;;;4.50;2.17;;;;;;;;;;4999097;28;20042;-81
2021/08/04 01:43:31;;;;;;;5.22;2.30;;;;;;;;;;5014739;28;20046;-82
2021/08/04 01:46:00;;;;;;;3.85;1.98;;;;;;;;;;4999107;28;20042;-82
2021/08/04 01:48:27;;;;;;;3.25;2.10;;;;;;;;;;4997990;28;20050;-82
2021/08/04 01:50:55;;;;;;;4.28;2.58;;;;;;;;;;4998601;28;20054;-82
2021/08/04 01:53:23;;;;;;;6.70;2.83;;;;;;;;;;5000059;28;20046;-81
2021/08/04 01:55:55;;;;;;;4.70;2.55;;;;;;;;;;5000398;28;20129;-81
2021/08/04 01:58:22;;;;;;;4.38;2.72;;;;;;;;;;4996125;28;20514;-81
2021/08/04 02:00:49;;;;;;;4.75;2.22;;;;;;;;;;4997414;28;20038;-80
2021/08/04 02:03:16;;;;;;;4.07;2.70;;;;;;;;;;5012852;28;20479;-81
2021/08/04 02:05:45;;;;;;;5.78;2.55;;;;;;;;;;4997809;28;20050;-82
2021/08/04 02:08:19;;;;;;;5.70;2.42;;;;;;;;;;4997875;28;20487;-81
2021/08/04 02:10:53;;;;;;;4.35;2.60;;;;;;;;;;4998035;28;20047;-82
2021/08/04 02:13:31;;;;;;;4.80;2.45;;;;;;;;;;4997859;28;20111;-83
2021/08/04 02:16:07;;;;;;;6.32;2.60;;;;;;;;;;4997613;28;20046;-81
2021/08/04 02:18:35;;;;;;;6.72;2.72;;;;;;;;;;4997678;28;20109;-81
2021/08/04 02:21:03;;;;;;;4.40;2.53;;;;;;;;;;4989195;28;20046;-82
2021/08/04 02:23:32;;;;;;;4.75;2.85;;;;;;;;;;4995261;28;20046;-82
2021/08/04 02:26:01;;;;;;;5.57;2.97;;;;;;;;;;4996789;28;20630;-81
2021/08/04 02:28:29;;;;;;;5.22;2.72;;;;;;;;;;4995932;28;20047;-80
2021/08/04 02:30:56;;;;;;;4.88;2.60;;;;;;;;;;4996861;28;20038;-81
2021/08/04 02:33:23;;;;;;;5.00;2.65;;;;;;;;;;4995845;28;20062;-82
2021/08/04 02:35:51;;;;;;;4.55;2.50;;;;;;;;;;4998154;28;20522;-81
2021/08/04 02:38:18;;;;;;;6.03;2.75;;;;;;;;;;4996852;28;20046;-81
2021/08/04 02:40:45;;;;;;;7.03;2.25;;;;;;;;;;4996846;28;20050;-81
2021/08/04 02:43:12;;;;;;;6.82;2.95;;;;;;;;;;4991977;28;20050;-82
2021/08/04 02:45:39;;;;;;;5.82;2.67;;;;;;;;;;4989146;28;20050;-81
2021/08/04 02:48:07;;;;;;;4.90;2.65;;;;;;;;;;4984731;28;20104;-81
2021/08/04 02:50:35;;;;;;;6.07;2.83;;;;;;;;;;4994620;28;20047;-81
2021/08/04 02:53:04;;;;;;;11.05;3.10;;;;;;;;;;4981159;28;20054;-81
2021/08/04 02:55:31;;;;;;;5.85;2.50;;;;;;;;;;4983386;28;20471;-82
2021/08/04 02:57:58;;;;;;;5.28;2.60;;;;;;;;;;5000206;28;20086;-81
2021/08/04 03:00:25;;;;;;;4.50;2.47;;;;;;;;;;5000548;28;20057;-82
2021/08/04 03:02:52;;;;;;;4.18;2.28;;;;;;;;;;5015364;28;20046;-81
2021/08/04 03:05:19;;;;;;;5.85;2.78;;;;;;;;;;5015676;28;20422;-80
2021/08/04 03:07:45;;;;;;;6.07;3.15;;;;;;;;;;4982737;28;20050;-81
2021/08/04 03:10:16;;;;;;;5.47;2.50;;;;;;;;;;5000541;28;20046;-81
2021/08/04 03:12:42;;;;;;;5.63;2.53;;;;;;;;;;5000060;28;20054;-80
2021/08/04 03:15:12;;;;;;;6.80;2.60;;;;;;;;;;4999859;28;20109;-80
2021/08/04 03:17:38;;;;;;;7.00;2.47;;;;;;;;;;4979563;28;20047;-81
2021/08/04 03:20:06;;;;;;;4.43;2.38;;;;;;;;;;4983906;28;20053;-81
2021/08/04 03:22:33;;;;;;;4.35;1.90;;;;;;;;;;5000669;28;20061;-81
2021/08/04 03:25:01;;;;;;;3.38;1.80;;;;;;;;;;4999487;28;20062;-80
2021/08/04 03:27:29;;;;;;;6.60;2.10;;;;;;;;;;5000737;28;20434;-81
2021/08/04 03:29:56;;;;;;;4.50;2.83;;;;;;;;;;4999760;28;20053;-81
2021/08/04 03:32:23;;;;;;;4.15;2.50;;;;;;;;;;4999211;28;20050;-80
2021/08/04 03:34:50;;;;;;;4.20;2.38;;;;;;;;;;5001306;28;20054;-81
2021/08/04 03:37:16;;;;;;;3.92;2.25;;;;;;;;;;5000297;28;20042;-81
2021/08/04 03:39:43;;;;;;;8.73;2.38;;;;;;;;;;5000354;28;20510;-81
2021/08/04 03:42:10;;;;;;;5.68;3.33;;;;;;;;;;4984825;28;20057;-80
2021/08/04 03:44:38;;;;;;;5.28;2.30;;;;;;;;;;5002668;28;20057;-80
2021/08/04 03:47:05;;;;;;;4.97;2.78;;;;;;;;;;5002525;28;20062;-81
2021/08/04 03:49:32;;;;;;;5.40;3.30;;;;;;;;;;4985090;28;20105;-81
2021/08/04 03:51:59;;;;;;;4.47;2.30;;;;;;;;;;5001428;28;20046;-80
2021/08/04 03:54:25;;;;;;;6.00;2.50;;;;;;;;;;4998415;28;20049;-80
2021/08/04 03:56:52;;;;;;;8.07;2.47;;;;;;;;;;4999492;28;20050;-81
2021/08/04 03:59:18;;;;;;;4.88;2.33;;;;;;;;;;5014197;28;20050;-80
2021/08/04 04:01:47;;;;;;;4.30;2.53;;;;;;;;;;4998285;28;20050;-80
2021/08/04 04:04:13;;;;;;;5.57;2.45;;;;;;;;;;4998928;28;20046;-80
2021/08/04 04:06:40;;;;;;;3.90;2.25;;;;;;;;;;4994791;28;20049;-80
2021/08/04 04:09:07;;;;;;;8.43;2.70;;;;;;;;;;4978048;28;20046;-81
2021/08/04 04:11:33;;;;;;;3.92;2.25;;;;;;;;;;4991625;28;20057;-80
2021/08/04 04:14:00;;;;;;;6.22;2.85;;;;;;;;;;4990695;28;20058;-80
2021/08/04 04:16:27;;;;;;;9.57;2.90;;;;;;;;;;4990696;28;20419;-81
2021/08/04 04:18:55;;;;;;;4.00;2.10;;;;;;;;;;4998886;28;20046;-80
2021/08/04 04:21:21;;;;;;;4.00;2.33;;;;;;;;;;4994030;28;20485;-81
2021/08/04 04:23:48;;;;;;;5.28;1.95;;;;;;;;;;4994093;28;20054;-80
2021/08/04 04:26:14;;;;;;;3.05;1.80;;;;;;;;;;4994715;28;20051;-81
2021/08/04 04:28:41;;;;;;;5.05;2.00;;;;;;;;;;4986825;28;20050;-81
2021/08/04 04:31:08;;;;;;;3.60;2.00;;;;;;;;;;4992629;28;20130;-82
2021/08/04 04:33:35;;;;;;;4.53;2.05;;;;;;;;;;4995596;28;20431;-81
2021/08/04 04:36:03;;;;;;;8.02;2.50;;;;;;;;;;4990463;28;20046;-82
2021/08/04 04:38:29;;;;;;;4.10;1.80;;;;;;;;;;4995866;28;20061;-83
2021/08/04 04:40:56;;;;;;;4.38;2.40;;;;;;;;;;4990578;28;20046;-82
2021/08/04 04:43:22;;;;;;;9.40;2.45;;;;;;;;;;4993677;28;20068;-83
2021/08/04 04:45:49;;;;;;;4.55;2.63;;;;;;;;;;4995976;28;20046;-82
2021/08/04 04:48:16;;;;;;;5.50;2.10;;;;;;;;;;4992589;28;20061;-81
2021/08/04 04:50:43;;;;;;;4.18;2.30;;;;;;;;;;4989951;28;20105;-82
2021/08/04 04:53:11;;;;;;;7.00;2.65;;;;;;;;;;4992143;28;20611;-81
2021/08/04 04:55:38;;;;;;;5.43;2.47;;;;;;;;;;4992487;28;20046;-82
2021/08/04 04:58:05;;;;;;;5.90;2.20;;;;;;;;;;4988516;28;20055;-82
2021/08/04 05:00:31;;;;;;;5.88;2.60;;;;;;;;;;4983201;28;20050;-82
2021/08/04 05:02:58;;;;;;;6.97;2.17;;;;;;;;;;4995279;28;20057;-82
2021/08/04 05:05:25;;;;;;;3.92;2.28;;;;;;;;;;4986134;28;20505;-83
2021/08/04 05:07:51;;;;;;;4.97;2.03;;;;;;;;;;5002925;28;20399;-82
2021/08/04 05:10:19;;;;;;;4.80;2.33;;;;;;;;;;4983316;28;20046;-81
2021/08/04 05:12:46;;;;;;;3.88;2.25;;;;;;;;;;4983487;28;20054;-82
2021/08/04 05:15:13;;;;;;;5.22;2.38;;;;;;;;;;4967492;28;20046;-81
2021/08/04 05:17:40;;;;;;;3.45;1.60;;;;;;;;;;4993800;28;20046;-81
2021/08/04 05:20:08;;;;;;;5.55;2.00;;;;;;;;;;4994325;28;20411;-82
2021/08/04 05:22:35;;;;;;;3.63;2.03;;;;;;;;;;4986496;28;20055;-81
2021/08/04 05:25:01;;;;;;;3.75;1.85;;;;;;;;;;4978704;28;20046;-82
2021/08/04 05:27:30;;;;;;;4.32;1.90;;;;;;;;;;4978506;28;20047;-82
2021/08/04 05:29:57;;;;;;;4.05;1.83;;;;;;;;;;4992640;28;20082;-82
2021/08/04 05:32:24;;;;;;;4.07;1.83;;;;;;;;;;4993499;28;20066;-81
2021/08/04 05:34:53;;;;;;;6.43;2.67;;;;;;;;;;4987855;28;20402;-82
2021/08/04 05:37:20;;;;;;;4.78;2.03;;;;;;;;;;4981996;28;20592;-81
2021/08/04 05:39:47;;;;;;;5.22;2.20;;;;;;;;;;4983019;28;20050;-82
2021/08/04 05:42:14;;;;;;;3.55;1.88;;;;;;;;;;4995718;28;20259;-81
2021/08/04 05:44:43;;;;;;;3.63;2.42;;;;;;;;;;5012747;28;20054;-81
2021/08/04 05:47:10;;;;;;;3.00;1.90;;;;;;;;;;4991020;28;20519;-82
2021/08/04 05:49:40;;;;;;;4.47;2.22;;;;;;;;;;5012100;28;20048;-82
2021/08/04 05:52:08;;;;;;;5.40;2.70;;;;;;;;;;4992749;28;20443;-81
2021/08/04 05:54:35;;;;;;;3.03;1.52;;;;;;;;;;4989701;28;20050;-82
2021/08/04 05:57:02;;;;;;;4.05;2.08;;;;;;;;;;4988643;28;20049;-82
2021/08/04 05:59:29;;;;;;;5.72;1.65;;;;;;;;;;4988315;28;20070;-82
2021/08/04 06:01:57;;;;;;;8.70;2.00;;;;;;;;;;4978446;28;20047;-82
2021/08/04 06:04:23;;;;;;;2.95;1.55;;;;;;;;;;4995293;28;20050;-82
2021/08/04 06:06:50;;;;;;;3.40;2.15;;;;;;;;;;4997863;28;20043;-83
2021/08/04 06:09:17;;;;;;;3.72;1.75;;;;;;;;;;4991413;28;20419;-81
2021/08/04 06:11:44;;;;;;;3.95;1.95;;;;;;;;;;4979150;28;20054;-82
2021/08/04 06:14:10;;;;;;;4.80;1.80;;;;;;;;;;4977199;28;20057;-82
2021/08/04 06:16:37;;;;;;;3.90;1.75;;;;;;;;;;4985506;28;20046;-82
2021/08/04 06:19:05;;;;;;;4.15;2.10;;;;;;;;;;4995446;28;20047;-83
2021/08/04 06:21:32;;;;;;;3.67;1.75;;;;;;;;;;4990273;28;20076;-82
2021/08/04 06:23:59;;;;;;;3.80;2.13;;;;;;;;;;4987388;28;20043;-82
2021/08/04 06:26:25;;;;;;;3.83;2.05;;;;;;;;;;4993881;28;20045;-83
2021/08/04 06:28:52;;;;;;;5.22;2.15;;;;;;;;;;4991258;28;20042;-83
2021/08/04 06:31:18;;;;;;;5.90;2.03;;;;;;;;;;4987905;28;20521;-83
2021/08/04 06:33:45;;;;;;;2.63;1.63;;;;;;;;;;4984570;28;20047;-83
2021/08/04 06:36:13;;;;;;;6.22;1.83;;;;;;;;;;4985938;28;20051;-83
2021/08/04 06:38:39;;;;;;;6.35;1.92;;;;;;;;;;4992759;28;20053;-82
2021/08/04 06:41:06;;;;;;;4.85;1.73;;;;;;;;;;4999458;28;20054;-83
2021/08/04 06:43:32;;;;;;;3.97;1.80;;;;;;;;;;4998990;28;20058;-83
2021/08/04 06:45:59;;;;;;;5.88;2.30;;;;;;;;;;4999804;28;20045;-83
2021/08/04 06:48:25;;;;;;;5.88;2.55;;;;;;;;;;4999859;28;20048;-83
2021/08/04 06:50:52;;;;;;;5.50;2.20;;;;;;;;;;4998145;28;20046;-84
2021/08/04 06:53:20;;;;;;;4.60;1.70;;;;;;;;;;4994712;28;20053;-83
2021/08/04 06:55:47;;;;;;;3.50;1.60;;;;;;;;;;4992158;28;20225;-83
2021/08/04 06:58:13;;;;;;;5.70;2.33;;;;;;;;;;4993779;28;20416;-83
2021/08/04 07:00:40;;;;;;;4.03;1.80;;;;;;;;;;4996369;28;20050;-83
2021/08/04 07:03:07;;;;;;;4.28;2.10;;;;;;;;;;4995148;28;20499;-84
2021/08/04 07:05:34;;;;;;;4.00;1.90;;;;;;;;;;4997679;28;20069;-83
2021/08/04 07:08:00;;;;;;;8.30;2.67;;;;;;;;;;4996812;28;20042;-82
2021/08/04 07:10:28;;;;;;;4.00;2.10;;;;;;;;;;4997380;28;20515;-83
2021/08/04 07:12:55;;;;;;;3.15;1.88;;;;;;;;;;4997706;28;20050;-82
2021/08/04 07:15:21;;;;;;;4.40;2.15;;;;;;;;;;4994543;28;20062;-82
2021/08/04 07:17:50;;;;;;;5.72;2.38;;;;;;;;;;4993183;28;20047;-83
2021/08/04 07:20:18;;;;;;;6.68;2.13;;;;;;;;;;4982859;28;20050;-84
2021/08/04 07:22:45;;;;;;;5.82;1.55;;;;;;;;;;4986674;28;20514;-82
2021/08/04 07:25:13;;;;;;;7.18;2.25;;;;;;;;;;4983339;28;20058;-84
2021/08/04 07:27:41;;;;;;;3.13;1.70;;;;;;;;;;4983301;28;20058;-84
2021/08/04 07:30:10;;;;;;;5.30;1.88;;;;;;;;;;4981249;28;20061;-83
2021/08/04 07:32:37;;;;;;;3.83;1.50;;;;;;;;;;4980241;28;20057;-83
2021/08/04 07:35:04;;;;;;;3.15;1.40;;;;;;;;;;4988653;28;20050;-85
2021/08/04 07:37:32;;;;;;;5.07;1.48;;;;;;;;;;4991961;28;20047;-84
2021/08/04 07:39:58;;;;;;;3.95;1.40;;;;;;;;;;4988659;28;20038;-84
2021/08/04 07:42:25;;;;;;;3.85;1.40;;;;;;;;;;4975341;28;20055;-84
2021/08/04 07:44:55;;;;;;;3.55;1.48;;;;;;;;;;4991791;28;20049;-84
2021/08/04 07:47:22;;;;;;;2.10;1.00;;;;;;;;;;4982182;28;20046;-83
2021/08/04 07:49:48;;;;;;;2.85;1.33;;;;;;;;;;4991234;28;20053;-83
2021/08/04 07:52:14;;;;;;;3.10;1.30;;;;;;;;;;4989202;28;20061;-84
2021/08/04 07:54:41;;;;;;;3.83;1.40;;;;;;;;;;4987979;28;20043;-83
2021/08/04 07:57:08;;;;;;;2.65;1.48;;;;;;;;;;4992090;28;20046;-83
2021/08/04 07:59:35;;;;;;;3.85;1.30;;;;;;;;;;4986463;28;20054;-83
2021/08/04 08:02:04;;;;;;;3.55;1.30;;;;;;;;;;4984635;28;20587;-84
2021/08/04 08:04:30;;;;;;;4.07;1.33;;;;;;;;;;4989396;28;20054;-83
2021/08/04 08:06:57;;;;;;;4.05;1.70;;;;;;;;;;4986767;28;20494;-84
2021/08/04 08:09:24;;;;;;;3.00;1.30;;;;;;;;;;4985554;28;20518;-84
2021/08/04 08:11:51;;;;;;;3.85;1.60;;;;;;;;;;4985103;28;20070;-84
2021/08/04 08:14:18;;;;;;;3.38;1.20;;;;;;;;;;4985070;28;20047;-84
2021/08/04 08:16:45;;;;;;;2.42;1.20;;;;;;;;;;4993824;28;20050;-84
2021/08/04 08:19:13;;;;;;;3.25;1.52;;;;;;;;;;4995541;28;20053;-84
2021/08/04 08:21:40;;;;;;;3.28;1.65;;;;;;;;;;4993827;28;20046;-84
2021/08/04 08:24:07;;;;;;;3.92;1.95;;;;;;;;;;4982809;28;20046;-84
2021/08/04 08:26:34;;;;;;;4.00;1.45;;;;;;;;;;4984793;28;20039;-83
2021/08/04 08:29:01;;;;;;;2.70;1.17;;;;;;;;;;4971360;28;20120;-84
2021/08/04 08:31:27;;;;;;;4.30;1.50;;;;;;;;;;4991412;28;20509;-84
2021/08/04 08:33:54;;;;;;;4.57;1.55;;;;;;;;;;4981067;28;20054;-85
2021/08/04 08:36:22;;;;;;;4.47;2.08;;;;;;;;;;4994663;28;20046;-85
2021/08/04 08:38:49;;;;;;;7.70;1.55;;;;;;;;;;4986588;28;20858;-85
2021/08/04 08:41:17;;;;;;;7.05;1.40;;;;;;;;;;4987512;28;20061;-85
2021/08/04 08:43:44;;;;;;;4.97;1.50;;;;;;;;;;4996300;28;20054;-86
2021/08/04 08:46:11;;;;;;;4.65;1.95;;;;;;;;;;4996044;28;20498;-86
2021/08/04 08:48:37;;;;;;;2.13;1.13;;;;;;;;;;4992449;28;20050;-86
2021/08/04 08:51:04;;;;;;;3.15;1.40;;;;;;;;;;4990926;28;20046;-86
2021/08/04 08:53:32;;;;;;;4.70;1.70;;;;;;;;;;4991226;28;20050;-86
2021/08/04 08:55:59;;;;;;;5.22;1.92;;;;;;;;;;4991841;28;20499;-84
2021/08/04 08:58:28;;;;;;;5.90;1.25;;;;;;;;;;4994633;28;20054;-84
2021/08/04 09:00:55;;;;;;;4.32;1.50;;;;;;;;;;4992936;28;20050;-85
2021/08/04 09:03:22;;;;;;;3.30;1.60;;;;;;;;;;4992993;28;20061;-85
2021/08/04 09:05:50;;;;;;;2.67;1.20;;;;;;;;;;4992738;28;20050;-85
2021/08/04 09:08:24;;;;;;;3.20;1.23;;;;;;;;;;4990063;28;20058;-86
2021/08/04 09:10:52;;;;;;;4.30;1.65;;;;;;;;;;4987146;28;20042;-85
2021/08/04 09:13:21;;;;;;;3.38;1.25;;;;;;;;;;4981678;28;20054;-84
2021/08/04 09:15:48;;;;;;;3.85;1.10;;;;;;;;;;4988149;28;20407;-84
2021/08/04 09:18:16;;;;;;;4.18;1.00;;;;;;;;;;4991072;28;20058;-85
2021/08/04 09:20:51;;;;;;;4.68;1.33;;;;;;;;;;4982020;28;20093;-85
2021/08/04 09:23:20;;;;;;;3.35;1.77;;;;;;;;;;4993170;28;20046;-85
2021/08/04 09:26:04;;;;;;;3.03;1.42;;;;;;;;;;4992052;28;20046;-86
2021/08/04 09:28:32;;;;;;;2.30;1.02;;;;;;;;;;4993363;28;20054;-85
2021/08/04 09:31:03;;;;;;;1.92;1.00;;;;;;;;;;4989733;28;20057;-85
2021/08/04 09:33:37;;;;;;;2.63;1.33;;;;;;;;;;4984762;28;20073;-87
2021/08/04 09:36:04;;;;;;;2.70;1.48;;;;;;;;;;4977622;28;20051;-85
2021/08/04 09:38:31;;;;;;;2.80;1.20;;;;;;;;;;4981360;28;20047;-85
2021/08/04 09:41:15;;;;;;;2.58;1.45;;;;;;;;;;4979997;28;20046;-86
2021/08/04 09:43:44;;;;;;;4.35;1.70;;;;;;;;;;4986442;28;20047;-86
2021/08/04 09:46:22;;;;;;;3.17;1.73;;;;;;;;;;4987972;28;20046;-86
2021/08/04 09:48:48;;;;;;;4.15;1.45;;;;;;;;;;4979215;28;20042;-86
2021/08/04 09:51:17;;;;;;;2.58;1.17;;;;;;;;;;4993116;28;20058;-86
2021/08/04 09:53:46;;;;;;;1.75;0.82;;;;;;;;;;4980709;28;20055;-86
2021/08/04 09:56:16;;;;;;;2.63;1.35;;;;;;;;;;4995229;28;20058;-86
2021/08/04 09:58:45;;;;;;;4.97;1.27;;;;;;;;;;4994539;28;20047;-85
2021/08/04 10:01:14;;;;;;;2.92;1.70;;;;;;;;;;4994736;28;20108;-86
2021/08/04 10:04:08;;;;;;;;;;;;;;;;;;;;;
2021/08/04 10:06:37;;;;;;;3.83;1.05;;;;;;;;;;4996041;28;20469;-85
2021/08/04 10:09:05;;;;;;;2.67;1.20;;;;;;;;;;4979632;28;20144;-86
2021/08/04 10:11:36;;;;;;;1.58;0.88;;;;;;;;;;4986484;28;20089;-87
2021/08/04 10:14:13;;;;;;;2.70;1.00;;;;;;;;;;4986696;28;20046;-87
2021/08/04 10:16:44;;;;;;;2.38;1.25;;;;;;;;;;5000860;28;20118;-87
2021/08/04 10:19:20;;;;;;;2.05;1.23;;;;;;;;;;5007438;28;20090;-84
2021/08/04 10:21:50;;;;;;;1.95;0.98;;;;;;;;;;5006571;28;20112;-85
2021/08/04 10:24:22;;;;;;;2.25;1.02;;;;;;;;;;4999854;28;20057;-84
2021/08/04 10:27:00;;;;;;;4.15;1.42;;;;;;;;;;5006693;28;20050;-84
2021/08/04 10:29:36;;;;;;;2.35;1.20;;;;;;;;;;5007409;28;20051;-85
2021/08/04 10:32:07;;;;;;;;;;;;;;;;;;5007121;28;20058;-84
2021/08/04 10:34:49;;;;;;;2.40;1.25;;;;;;;;;;5007379;28;19928;-84
2021/08/04 10:37:20;;;;;;;3.17;1.30;;;;;;;;;;5005561;28;20054;-85
2021/08/04 10:39:47;;;;;;;1.40;1.00;;;;;;;;;;4986906;28;20059;-83
2021/08/04 10:42:15;;;;;;;3.28;1.20;;;;;;;;;;4985492;28;20442;-85
2021/08/04 10:44:44;;;;;;;3.70;1.33;;;;;;;;;;4986069;28;20053;-85
2021/08/04 10:47:26;;;;;;;2.95;1.13;;;;;;;;;;4975867;28;20050;-85
2021/08/04 10:50:09;;;;;;;2.53;1.05;;;;;;;;;;4988391;28;20053;-85
2021/08/04 10:52:35;;;;;;;2.72;1.10;;;;;;;;;;4985468;28;20062;-85
2021/08/04 10:55:12;;;;;;;2.70;1.15;;;;;;;;;;4997105;28;20049;-85
2021/08/04 10:58:17;;;;;;;3.35;1.00;;;;;;;;;;4987016;28;20126;-86
2021/08/04 11:00:46;;;;;;;1.90;1.08;;;;;;;;;;4999897;28;20054;-86
2021/08/04 11:03:58;;;;;;;1.83;1.10;;;;;;;;;;4996540;28;20486;-85
2021/08/04 11:06:25;;;;;;;2.28;1.23;;;;;;;;;;4977107;28;20066;-85
2021/08/04 11:09:29;;;;;;;4.07;1.52;;;;;;;;;;4996731;28;20415;-85
2021/08/04 11:11:57;;;;;;;2.00;0.95;;;;;;;;;;4996268;28;20051;-85
2021/08/04 11:14:38;;;;;;;1.85;1.10;;;;;;;;;;4990915;28;20134;-84
2021/08/04 11:17:08;;;;;;;2.83;1.30;;;;;;;;;;5001981;28;20085;-85
2021/08/04 11:20:10;;;;;;;2.13;1.27;;;;;;;;;;5005242;28;20054;-84
2021/08/04 11:22:53;;;;;;;1.98;1.02;;;;;;;;;;5006199;28;20050;-85
2021/08/04 11:25:35;;;;;;;2.08;1.08;;;;;;;;;;5005247;28;20108;-84
2021/08/04 11:28:12;;;;;;;3.88;1.30;;;;;;;;;;5004587;28;20086;-84
2021/08/04 11:30:41;;;;;;;2.60;1.20;;;;;;;;;;5005254;28;20188;-84
2021/08/04 11:33:34;;;;;;;1.80;1.13;;;;;;;;;;5000633;28;20050;-86
2021/08/04 11:36:27;;;;;;;1.75;0.85;;;;;;;;;;4991759;28;20069;-83
2021/08/04 11:39:02;;;;;;;2.25;1.02;;;;;;;;;;5003595;28;20097;-84
2021/08/04 11:41:35;;;;;;;1.38;0.82;;;;;;;;;;4998918;28;20542;-85
2021/08/04 11:44:26;;;;;;;1.75;0.90;;;;;;;;;;4989537;28;20046;-85
2021/08/04 11:46:56;;;;;;;1.48;0.80;;;;;;;;;;4976162;28;20082;-84
2021/08/04 11:49:29;;;;;;;1.60;1.08;;;;;;;;;;4992372;28;20082;-84
2021/08/04 11:51:57;;;;;;;1.83;1.08;;;;;;;;;;4992032;28;20057;-84
2021/08/04 11:54:39;;;;;;;2.33;1.30;;;;;;;;;;4985481;28;20057;-84
2021/08/04 11:57:08;;;;;;;2.83;1.40;;;;;;;;;;4992686;28;20046;-83
2021/08/04 11:59:45;;;;;;;2.72;1.10;;;;;;;;;;4992801;28;20511;-83
2021/08/04 12:02:11;;;;;;;2.35;0.80;;;;;;;;;;5000358;28;20046;-84
2021/08/04 12:04:45;;;;;;;2.55;1.42;;;;;;;;;;4994521;28;20039;-85
2021/08/04 12:07:12;;;;;;;2.10;1.02;;;;;;;;;;4983406;28;20609;-84
2021/08/04 12:09:40;;;;;;;1.35;0.93;;;;;;;;;;4994502;28;20062;-84
2021/08/04 12:12:08;;;;;;;1.98;1.10;;;;;;;;;;4984459;28;20496;-84
2021/08/04 12:14:35;;;;;;;2.65;1.17;;;;;;;;;;4981853;28;20043;-84
2021/08/04 12:17:04;;;;;;;2.30;1.23;;;;;;;;;;4986061;28;20050;-84
2021/08/04 12:19:37;;;;;;;2.22;1.05;;;;;;;;;;4968837;28;20051;-84
2021/08/04 12:22:07;;;;;;;1.83;0.93;;;;;;;;;;4992407;28;20492;-84
2021/08/04 12:24:41;;;;;;;4.10;1.27;;;;;;;;;;4987242;28;20512;-83
2021/08/04 12:27:08;;;;;;;2.97;1.30;;;;;;;;;;4988068;28;20046;-84
2021/08/04 12:29:35;;;;;;;3.00;1.33;;;;;;;;;;4995313;28;20046;-84
2021/08/04 12:32:12;;;;;;;3.13;1.20;;;;;;;;;;4973121;28;20487;-84
2021/08/04 12:34:49;;;;;;;2.63;1.30;;;;;;;;;;4993633;28;20089;-84
2021/08/04 12:37:18;;;;;;;2.17;1.13;;;;;;;;;;4978796;28;20042;-84
2021/08/04 12:39:46;;;;;;;2.92;1.10;;;;;;;;;;4989465;28;20491;-83
2021/08/04 12:42:13;;;;;;;2.63;1.20;;;;;;;;;;4995377;28;20062;-83
2021/08/04 12:44:41;;;;;;;3.47;1.27;;;;;;;;;;4994879;28;20712;-84
2021/08/04 12:47:09;;;;;;;2.85;1.23;;;;;;;;;;4994176;28;20061;-84
2021/08/04 12:49:36;;;;;;;2.88;1.25;;;;;;;;;;4976100;28;20085;-83
2021/08/04 12:52:03;;;;;;;2.38;1.17;;;;;;;;;;4994889;28;20418;-83
2021/08/04 12:54:33;;;;;;;2.78;1.40;;;;;;;;;;4975569;28;20051;-83
2021/08/04 12:57:01;;;;;;;2.53;1.17;;;;;;;;;;4977751;28;20047;-85
2021/08/04 12:59:41;;;;;;;3.63;1.30;;;;;;;;;;4994168;28;20050;-84
2021/08/04 13:02:09;;;;;;;4.07;1.25;;;;;;;;;;5010245;28;20054;-83
2021/08/04 13:04:37;;;;;;;2.58;1.20;;;;;;;;;;4995043;28;20046;-83
2021/08/04 13:07:05;;;;;;;2.60;1.30;;;;;;;;;;4995551;28;20059;-83
2021/08/04 13:09:48;;;;;;;1.75;1.05;;;;;;;;;;4993667;28;20518;-84
2021/08/04 13:12:17;;;;;;;2.25;1.23;;;;;;;;;;4986938;28;20050;-83
2021/08/04 13:15:07;;;;;;;3.40;1.50;;;;;;;;;;4978825;28;20051;-83
2021/08/04 13:17:35;;;;;;;10.95;1.30;;;;;;;;;;4980963;28;20558;-84
2021/08/04 13:20:04;;;;;;;2.97;1.42;;;;;;;;;;4982137;28;20054;-83
2021/08/04 13:22:52;;;;;;;2.60;1.25;;;;;;;;;;4982836;28;20709;-83
2021/08/04 13:25:21;;;;;;;2.97;1.15;;;;;;;;;;4978588;28;20451;-84
2021/08/04 13:28:00;;;;;;;2.70;1.42;;;;;;;;;;4994288;28;20481;-84
2021/08/04 13:30:28;;;;;;;4.63;1.65;;;;;;;;;;4994511;28;20499;-84
2021/08/04 13:32:56;;;;;;;2.75;1.33;;;;;;;;;;5009215;28;20081;-84
2021/08/04 13:35:23;;;;;;;3.97;1.38;;;;;;;;;;4987338;28;20050;-84
2021/08/04 13:37:50;;;;;;;2.88;1.30;;;;;;;;;;4997016;28;20065;-84
2021/08/04 13:40:17;;;;;;;5.47;1.77;;;;;;;;;;4995414;28;20046;-85
2021/08/04 13:42:46;;;;;;;4.88;2.78;;;;;;;;;;4978963;28;20401;-84
2021/08/04 13:45:17;;;;;;;3.75;1.88;;;;;;;;;;4995633;28;20054;-85
2021/08/04 13:47:45;;;;;;;2.55;1.40;;;;;;;;;;4995762;28;20495;-85
2021/08/04 13:50:12;;;;;;;3.30;1.50;;;;;;;;;;4995025;28;20050;-84
2021/08/04 13:52:39;;;;;;;3.75;2.25;;;;;;;;;;4995766;28;20415;-84
2021/08/04 13:55:09;;;;;;;3.83;2.22;;;;;;;;;;4995395;28;20052;-84
2021/08/04 13:57:36;;;;;;;5.25;2.95;;;;;;;;;;4995819;28;20046;-85
2021/08/04 14:00:05;;;;;;;3.88;2.38;;;;;;;;;;4994224;28;20057;-85
2021/08/04 14:02:32;;;;;;;2.75;1.73;;;;;;;;;;4994245;28;20050;-85
2021/08/04 14:04:58;;;;;;;3.50;1.50;;;;;;;;;;4995798;28;20392;-85
2021/08/04 14:07:25;;;;;;;3.08;1.60;;;;;;;;;;4993772;28;20053;-85
2021/08/04 14:09:53;;;;;;;3.05;1.65;;;;;;;;;;4995512;28;20046;-85
2021/08/04 14:12:20;;;;;;;2.53;1.17;;;;;;;;;;4995764;28;20054;-86
2021/08/04 14:14:49;;;;;;;3.60;1.55;;;;;;;;;;4994197;28;20050;-85
2021/08/04 14:17:18;;;;;;;2.15;1.20;;;;;;;;;;4994301;28;20137;-86
2021/08/04 14:19:45;;;;;;;2.13;0.98;;;;;;;;;;4992663;28;20519;-86
2021/08/04 14:22:12;;;;;;;4.32;1.30;;;;;;;;;;4993805;28;20050;-86
2021/08/04 14:24:39;;;;;;;3.50;1.30;;;;;;;;;;4993538;28;20499;-85
2021/08/04 14:27:07;;;;;;;3.08;0.98;;;;;;;;;;4993814;28;20483;-85
2021/08/04 14:29:34;;;;;;;2.40;1.40;;;;;;;;;;5003385;28;20054;-84
2021/08/04 14:32:01;;;;;;;3.58;1.50;;;;;;;;;;4999177;28;20046;-84
2021/08/04 14:34:30;;;;;;;2.08;1.17;;;;;;;;;;4992831;28;20439;-84
2021/08/04 14:36:57;;;;;;;1.88;1.05;;;;;;;;;;4994261;28;20450;-84
2021/08/04 14:39:24;;;;;;;2.53;1.00;;;;;;;;;;4995248;28;20077;-84
2021/08/04 14:41:51;;;;;;;2.38;1.17;;;;;;;;;;4995242;28;20050;-84
2021/08/04 14:44:18;;;;;;;2.30;1.08;;;;;;;;;;4994504;28;20496;-83
2021/08/04 14:46:45;;;;;;;2.33;1.30;;;;;;;;;;4994499;28;20046;-83
2021/08/04 14:49:12;;;;;;;2.58;1.17;;;;;;;;;;4998807;28;20046;-83
2021/08/04 14:51:40;;;;;;;4.20;1.60;;;;;;;;;;4997991;28;20057;-82
2021/08/04 14:54:07;;;;;;;2.55;1.30;;;;;;;;;;4998518;28;20050;-83
2021/08/04 14:56:34;;;;;;;3.22;1.50;;;;;;;;;;4997730;28;20051;-84